Time;durP1;ratioP1;P1;durP2;ratioP2;P2;SDS_P1;SDS_P2;PMS_P1;PMS_P2;Temp;Humidity;BMP_temperature;BMP_pressure;BME280_temperature;BME280_humidity;BME280_pressure;Samples;Min_cycle;Max_cycle;Signal;HPM_P1;HPM_P2
2021/06/22 00:01:20;;;;;;;15.02;3.15;;;16.90;79.50;;;;;;5082281;28;20059;-62
2021/06/22 00:03:46;;;;;;;12.43;2.80;;;16.90;79.50;;;;;;5094160;28;20494;-62
2021/06/22 00:06:11;;;;;;;10.10;2.67;;;16.90;79.40;;;;;;5095193;28;20043;-62
2021/06/22 00:08:37;;;;;;;7.95;2.50;;;16.90;79.40;;;;;;5091344;28;20043;-62
2021/06/22 00:11:04;;;;;;;7.70;2.22;;;16.90;79.30;;;;;;5090649;28;20028;-62
2021/06/22 00:13:29;;;;;;;9.07;2.63;;;16.90;79.20;;;;;;5092658;28;20471;-62
2021/06/22 00:15:55;;;;;;;9.48;2.60;;;16.90;79.10;;;;;;5093933;28;20085;-62
2021/06/22 00:18:21;;;;;;;9.07;2.55;;;16.80;78.90;;;;;;5094236;28;20082;-62
2021/06/22 00:20:46;;;;;;;7.47;2.35;;;16.80;78.70;;;;;;5089035;28;20020;-62
2021/06/22 00:23:12;;;;;;;8.18;2.70;;;16.80;78.70;;;;;;5093021;28;20565;-62
2021/06/22 00:25:38;;;;;;;8.68;2.03;;;16.80;78.70;;;;;;5091126;28;20123;-62
2021/06/22 00:28:04;;;;;;;11.00;2.50;;;16.80;78.80;;;;;;5083669;28;20039;-62
2021/06/22 00:30:30;;;;;;;12.05;2.70;;;16.80;78.70;;;;;;5092876;28;20051;-62
2021/06/22 00:32:56;;;;;;;7.68;2.38;;;16.80;78.60;;;;;;5094547;28;20036;-62
2021/06/22 00:35:23;;;;;;;13.52;2.95;;;16.80;78.50;;;;;;5088219;28;20127;-62
2021/06/22 00:37:48;;;;;;;9.30;2.53;;;16.80;78.30;;;;;;5088264;28;20032;-62
2021/06/22 00:40:16;;;;;;;13.77;2.60;;;16.80;78.10;;;;;;5093462;28;20034;-62
2021/06/22 00:42:46;;;;;;;8.05;2.72;;;16.80;77.90;;;;;;5093742;28;20487;-62
2021/06/22 00:45:13;;;;;;;13.38;3.15;;;16.80;77.60;;;;;;5073909;28;20024;-62
2021/06/22 00:47:40;;;;;;;9.73;3.55;;;16.70;77.50;;;;;;5072182;28;20491;-62
2021/06/22 00:50:10;;;;;;;15.18;4.30;;;16.70;77.20;;;;;;5072806;28;20043;-62
2021/06/22 00:52:41;;;;;;;10.43;3.97;;;16.70;76.90;;;;;;5042368;28;20074;-62
2021/06/22 00:55:11;;;;;;;15.20;4.63;;;16.70;76.70;;;;;;5073656;28;20025;-62
2021/06/22 00:57:40;;;;;;;8.93;4.40;;;16.60;76.50;;;;;;5068253;28;20040;-62
2021/06/22 01:00:09;;;;;;;17.95;4.60;;;16.70;76.50;;;;;;5054900;28;20028;-62
2021/06/22 01:02:40;;;;;;;11.75;4.40;;;16.60;76.30;;;;;;5055015;28;20021;-62
2021/06/22 01:05:08;;;;;;;12.30;5.00;;;16.60;76.20;;;;;;5054521;28;20064;-62
2021/06/22 01:07:37;;;;;;;13.05;4.93;;;16.60;76.00;;;;;;5071850;28;20121;-62
2021/06/22 01:10:03;;;;;;;18.35;5.97;;;16.60;75.90;;;;;;5073178;28;20463;-62
2021/06/22 01:12:41;;;;;;;10.77;5.28;;;16.60;75.90;;;;;;5053857;28;20029;-62
2021/06/22 01:15:21;;;;;;;16.17;5.45;;;16.50;75.70;;;;;;5053954;28;20098;-62
2021/06/22 01:17:52;;;;;;;9.52;4.72;;;16.50;75.60;;;;;;5055088;28;20127;-61
2021/06/22 01:20:19;;;;;;;11.93;5.43;;;16.50;75.60;;;;;;5054923;28;20025;-62
2021/06/22 01:22:46;;;;;;;18.10;6.78;;;16.50;75.60;;;;;;5072431;28;20028;-62
2021/06/22 01:25:14;;;;;;;14.43;6.43;;;16.40;75.50;;;;;;5054932;28;20055;-62
2021/06/22 01:27:42;;;;;;;13.63;6.03;;;16.40;75.60;;;;;;5071373;28;20028;-62
2021/06/22 01:30:11;;;;;;;14.77;6.05;;;16.40;75.60;;;;;;5072673;28;20425;-62
2021/06/22 01:32:47;;;;;;;14.45;6.30;;;16.40;75.70;;;;;;5072441;28;20048;-62
2021/06/22 01:35:13;;;;;;;13.85;6.15;;;16.30;75.70;;;;;;5049084;28;20468;-62
2021/06/22 01:38:08;;;;;;;19.25;6.60;;;16.30;75.70;;;;;;5063186;28;20070;-62
2021/06/22 01:40:47;;;;;;;22.60;6.45;;;16.30;75.80;;;;;;5070036;28;20077;-62
2021/06/22 01:43:15;;;;;;;13.25;6.07;;;16.20;75.60;;;;;;5051903;28;20025;-62
2021/06/22 01:45:46;;;;;;;13.38;6.70;;;16.20;75.60;;;;;;5072674;28;20044;-62
2021/06/22 01:48:12;;;;;;;23.15;6.30;;;16.20;75.60;;;;;;5079082;28;20070;-62
2021/06/22 01:50:42;;;;;;;21.45;7.95;;;16.20;75.70;;;;;;5092724;28;20162;-62
2021/06/22 01:53:11;;;;;;;16.25;8.15;;;16.10;75.70;;;;;;5074617;28;20056;-61
2021/06/22 01:55:42;;;;;;;12.30;6.25;;;16.10;75.90;;;;;;5084897;28;20074;-62
2021/06/22 01:58:14;;;;;;;17.08;7.40;;;16.10;76.00;;;;;;5092284;28;20043;-62
2021/06/22 02:00:58;;;;;;;15.05;6.32;;;16.00;76.10;;;;;;5074998;28;20028;-62
2021/06/22 02:03:33;;;;;;;13.93;6.88;;;16.00;76.90;;;;;;5072785;28;20027;-62
2021/06/22 02:05:58;;;;;;;21.55;8.52;;;15.90;76.40;;;;;;5092298;28;20032;-61
2021/06/22 02:08:27;;;;;;;15.25;7.05;;;15.90;76.60;;;;;;5071843;28;20492;-62
2021/06/22 02:10:53;;;;;;;16.77;7.18;;;15.90;76.70;;;;;;5089459;28;20064;-62
2021/06/22 02:13:31;;;;;;;17.48;8.32;;;15.80;76.80;;;;;;5072489;28;20020;-61
2021/06/22 02:16:10;;;;;;;19.85;7.60;;;15.80;76.80;;;;;;5073150;28;20028;-62
2021/06/22 02:18:36;;;;;;;22.20;7.28;;;15.80;76.80;;;;;;5065331;28;20033;-61
2021/06/22 02:21:04;;;;;;;26.13;7.22;;;15.80;76.80;;;;;;5068644;28;20035;-62
2021/06/22 02:23:31;;;;;;;26.23;8.45;;;15.80;76.80;;;;;;5089801;28;20039;-62
2021/06/22 02:25:56;;;;;;;18.35;6.20;;;15.70;76.70;;;;;;5072734;28;20024;-62
2021/06/22 02:28:22;;;;;;;12.90;7.05;;;15.80;76.80;;;;;;5069761;28;20124;-62
2021/06/22 02:30:54;;;;;;;14.30;6.55;;;15.80;76.80;;;;;;5092050;28;20464;-62
2021/06/22 02:33:21;;;;;;;18.27;7.30;;;15.80;76.80;;;;;;5091728;28;20111;-62
2021/06/22 02:35:51;;;;;;;14.00;6.82;;;15.70;76.70;;;;;;5092476;28;20044;-62
2021/06/22 02:38:18;;;;;;;14.73;6.47;;;15.70;76.60;;;;;;5072789;28;20038;-62
2021/06/22 02:40:49;;;;;;;24.33;7.40;;;15.70;76.60;;;;;;5091787;28;20039;-62
2021/06/22 02:43:18;;;;;;;15.48;7.57;;;15.70;76.60;;;;;;5074070;28;20032;-62
2021/06/22 02:45:46;;;;;;;13.60;6.80;;;15.70;76.50;;;;;;5071240;28;20021;-61
2021/06/22 02:48:17;;;;;;;11.40;6.97;;;15.70;76.60;;;;;;5089772;28;20487;-62
2021/06/22 02:50:43;;;;;;;20.10;6.95;;;15.60;76.50;;;;;;5068914;28;20445;-62
2021/06/22 02:53:12;;;;;;;19.75;6.95;;;15.60;76.60;;;;;;5074207;28;20029;-61
2021/06/22 02:55:39;;;;;;;17.10;7.45;;;15.50;76.60;;;;;;5087191;28;20115;-62
2021/06/22 02:58:07;;;;;;;21.55;7.60;;;15.50;76.70;;;;;;5068152;28;20043;-62
2021/06/22 03:00:34;;;;;;;20.20;8.70;;;15.50;76.70;;;;;;5091433;28;20028;-62
2021/06/22 03:03:06;;;;;;;10.90;6.80;;;15.40;77.30;;;;;;5070909;28;20028;-62
2021/06/22 03:05:37;;;;;;;24.27;7.57;;;15.40;76.60;;;;;;5072718;28;20032;-62
2021/06/22 03:08:03;;;;;;;17.30;7.88;;;15.40;76.30;;;;;;5072741;28;20039;-62
2021/06/22 03:10:29;;;;;;;18.67;8.23;;;15.40;76.30;;;;;;5072879;28;20036;-62
2021/06/22 03:12:56;;;;;;;20.30;9.25;;;15.30;76.30;;;;;;5064255;28;20029;-62
2021/06/22 03:15:25;;;;;;;17.17;8.65;;;15.30;76.30;;;;;;5087127;28;20050;-62
2021/06/22 03:17:52;;;;;;;13.60;8.30;;;15.30;76.30;;;;;;5084525;28;20044;-62
2021/06/22 03:20:22;;;;;;;20.90;8.88;;;15.30;76.50;;;;;;5061678;28;20117;-62
2021/06/22 03:22:49;;;;;;;15.82;8.20;;;15.30;76.30;;;;;;5070954;28;20410;-61
2021/06/22 03:25:15;;;;;;;15.60;8.00;;;15.30;76.30;;;;;;5073151;28;20020;-62
2021/06/22 03:27:50;;;;;;;18.92;8.18;;;15.30;76.30;;;;;;5071651;28;20040;-61
2021/06/22 03:30:35;;;;;;;19.75;8.32;;;15.40;76.30;;;;;;5091671;28;20459;-61
2021/06/22 03:33:01;;;;;;;18.35;9.18;;;15.30;76.20;;;;;;5090285;28;20052;-62
2021/06/22 03:35:29;;;;;;;20.52;9.10;;;15.30;76.30;;;;;;5090768;28;20020;-62
2021/06/22 03:37:55;;;;;;;22.17;8.20;;;15.30;76.30;;;;;;5093786;28;20044;-61
2021/06/22 03:40:21;;;;;;;16.77;8.32;;;15.30;76.30;;;;;;5094198;28;20020;-62
2021/06/22 03:42:48;;;;;;;15.85;7.50;;;15.30;76.30;;;;;;5095138;28;20470;-62
2021/06/22 03:45:15;;;;;;;12.63;8.10;;;15.30;76.30;;;;;;5094504;28;20048;-62
2021/06/22 03:47:44;;;;;;;17.02;7.78;;;15.30;76.50;;;;;;5094557;28;20395;-61
2021/06/22 03:50:12;;;;;;;20.92;7.55;;;15.30;76.60;;;;;;5076703;28;20107;-63
2021/06/22 03:52:39;;;;;;;18.27;7.93;;;15.30;76.70;;;;;;5094396;28;20059;-62
2021/06/22 03:55:28;;;;;;;14.85;7.53;;;15.20;76.60;;;;;;5091403;28;20020;-62
2021/06/22 03:58:05;;;;;;;13.52;7.40;;;15.30;76.70;;;;;;5094045;28;20043;-61
2021/06/22 04:00:38;;;;;;;14.10;7.78;;;15.30;76.80;;;;;;5075348;28;20554;-60
2021/06/22 04:03:13;;;;;;;18.48;7.13;;;15.20;76.80;;;;;;5091490;28;20039;-61
2021/06/22 04:05:43;;;;;;;21.50;8.70;;;15.30;77.00;;;;;;5094410;28;20042;-62
2021/06/22 04:08:27;;;;;;;18.02;6.95;;;15.20;77.00;;;;;;5093264;28;20157;-62
2021/06/22 04:10:59;;;;;;;13.10;6.40;;;15.20;77.00;;;;;;5092949;28;20024;-62
2021/06/22 04:13:26;;;;;;;16.30;7.93;;;15.20;77.10;;;;;;5076556;28;20028;-62
2021/06/22 04:15:56;;;;;;;26.25;7.60;;;15.20;77.10;;;;;;5063566;28;20467;-62
2021/06/22 04:18:22;;;;;;;15.32;7.50;;;15.20;77.20;;;;;;5085045;28;20167;-62
2021/06/22 04:20:49;;;;;;;15.02;7.30;;;15.20;77.20;;;;;;5086731;28;20407;-62
2021/06/22 04:23:17;;;;;;;17.77;7.47;;;15.20;77.30;;;;;;5072722;28;20069;-62
2021/06/22 04:25:43;;;;;;;16.05;6.00;;;15.20;77.40;;;;;;5092346;28;20105;-62
2021/06/22 04:28:09;;;;;;;14.50;6.75;;;15.20;77.40;;;;;;5075145;28;20036;-62
2021/06/22 04:30:37;;;;;;;14.85;6.97;;;15.20;77.60;;;;;;5094088;28;20024;-62
2021/06/22 04:33:04;;;;;;;15.32;6.88;;;15.30;77.80;;;;;;5093183;28;20035;-62
2021/06/22 04:35:31;;;;;;;15.70;6.97;;;15.20;78.10;;;;;;5093564;28;20040;-62
2021/06/22 04:38:01;;;;;;;16.38;7.00;;;15.20;78.30;;;;;;5092321;28;20405;-62
2021/06/22 04:40:27;;;;;;;14.27;7.20;;;15.30;78.40;;;;;;5091313;28;20054;-62
2021/06/22 04:42:53;;;;;;;15.93;7.43;;;15.30;78.40;;;;;;5094320;28;20086;-62
2021/06/22 04:45:19;;;;;;;15.73;7.80;;;15.30;78.30;;;;;;5091518;28;20024;-62
2021/06/22 04:47:44;;;;;;;20.83;7.35;;;15.30;78.30;;;;;;5093204;28;20043;-62
2021/06/22 04:50:10;;;;;;;17.02;7.25;;;15.30;78.30;;;;;;5092227;28;20016;-62
2021/06/22 04:52:37;;;;;;;14.07;6.80;;;15.30;78.30;;;;;;5093450;28;20035;-62
2021/06/22 04:55:12;;;;;;;20.27;7.00;;;15.30;78.30;;;;;;5074620;28;20418;-62
2021/06/22 04:57:42;;;;;;;23.42;6.68;;;15.30;78.50;;;;;;5092120;28;20497;-62
2021/06/22 05:00:09;;;;;;;15.65;7.28;;;15.30;78.50;;;;;;5094125;28;20118;-62
2021/06/22 05:02:35;;;;;;;18.83;7.88;;;15.40;78.50;;;;;;5092814;28;20114;-62
2021/06/22 05:05:04;;;;;;;18.00;6.55;;;15.30;78.50;;;;;;5092679;28;20077;-62
2021/06/22 05:07:30;;;;;;;11.65;6.60;;;15.30;78.70;;;;;;5084512;28;20452;-62
2021/06/22 05:09:57;;;;;;;12.98;6.13;;;15.30;78.70;;;;;;5091830;28;20111;-62
2021/06/22 05:12:23;;;;;;;13.05;5.75;;;15.30;78.80;;;;;;5090104;28;20422;-62
2021/06/22 05:14:49;;;;;;;12.68;5.95;;;15.30;78.90;;;;;;5091540;28;20024;-62
2021/06/22 05:17:14;;;;;;;15.88;6.65;;;15.30;79.10;;;;;;5092396;28;20050;-61
2021/06/22 05:19:40;;;;;;;16.63;6.53;;;15.40;79.60;;;;;;5088101;28;20027;-61
2021/06/22 05:22:06;;;;;;;20.92;6.28;;;15.40;79.80;;;;;;5092875;28;20035;-60
2021/06/22 05:24:31;;;;;;;16.23;6.50;;;15.40;80.00;;;;;;5091995;28;20389;-61
2021/06/22 05:26:57;;;;;;;12.77;6.50;;;15.40;80.40;;;;;;5092117;28;20032;-61
2021/06/22 05:29:23;;;;;;;13.77;6.22;;;15.30;80.70;;;;;;5088822;28;20107;-60
2021/06/22 05:31:48;;;;;;;21.80;6.05;;;15.40;81.10;;;;;;5089484;28;20367;-61
2021/06/22 05:34:14;;;;;;;13.48;5.68;;;15.40;81.30;;;;;;5088640;28;20024;-61
2021/06/22 05:36:40;;;;;;;16.08;5.60;;;15.40;81.50;;;;;;5090055;28;20028;-61
2021/06/22 05:39:05;;;;;;;19.17;5.95;;;15.40;81.60;;;;;;5092009;28;20020;-61
2021/06/22 05:41:31;;;;;;;13.68;5.80;;;15.50;81.50;;;;;;5091848;28;20486;-61
2021/06/22 05:43:57;;;;;;;22.80;6.25;;;15.50;81.50;;;;;;5092429;28;20546;-61
2021/06/22 05:46:22;;;;;;;19.40;6.38;;;15.50;81.60;;;;;;5091989;28;20463;-60
2021/06/22 05:48:48;;;;;;;17.70;5.57;;;15.60;81.80;;;;;;5091851;28;20083;-61
2021/06/22 05:51:14;;;;;;;15.80;4.85;;;15.50;81.80;;;;;;5092217;28;20093;-61
2021/06/22 05:53:39;;;;;;;12.48;4.55;;;15.60;81.90;;;;;;5091515;28;20024;-61
2021/06/22 05:56:05;;;;;;;14.70;5.47;;;15.70;82.10;;;;;;5091824;28;20384;-61
2021/06/22 05:58:31;;;;;;;15.02;4.80;;;15.70;82.20;;;;;;5091999;28;20036;-62
2021/06/22 06:00:56;;;;;;;14.95;3.72;;;15.80;82.00;;;;;;5091024;28;20068;-63
2021/06/22 06:03:22;;;;;;;10.77;3.80;;;15.80;82.00;;;;;;5090991;28;20028;-63
2021/06/22 06:05:48;;;;;;;8.82;4.15;;;15.80;82.20;;;;;;5090068;28;20024;-61
2021/06/22 06:08:13;;;;;;;13.48;4.20;;;15.80;81.90;;;;;;5090905;28;20375;-62
2021/06/22 06:10:40;;;;;;;13.18;3.70;;;15.90;82.00;;;;;;5091702;28;20387;-62
2021/06/22 06:13:06;;;;;;;19.02;3.88;;;15.90;82.00;;;;;;5091484;28;20020;-63
2021/06/22 06:15:32;;;;;;;14.95;4.00;;;15.90;81.50;;;;;;5091244;28;20028;-62
2021/06/22 06:17:57;;;;;;;12.80;4.35;;;16.00;81.80;;;;;;5090864;28;20039;-62
2021/06/22 06:20:25;;;;;;;12.05;3.60;;;16.00;81.80;;;;;;5091865;28;21657;-62
2021/06/22 06:22:51;;;;;;;12.95;3.85;;;16.00;82.10;;;;;;5088802;28;20479;-61
2021/06/22 06:25:17;;;;;;;15.80;4.15;;;16.10;81.60;;;;;;5089584;28;20057;-60
2021/06/22 06:27:48;;;;;;;14.05;3.65;;;16.10;81.20;;;;;;5089327;28;20031;-61
2021/06/22 06:30:18;;;;;;;9.45;2.80;;;16.20;81.40;;;;;;5087653;28;20506;-60
2021/06/22 06:32:47;;;;;;;6.28;2.80;;;16.20;81.20;;;;;;5089883;28;20032;-60
2021/06/22 06:35:14;;;;;;;8.55;2.70;;;16.30;81.00;;;;;;5066035;28;20395;-62
2021/06/22 06:37:40;;;;;;;12.35;4.07;;;16.30;81.00;;;;;;5087302;28;20044;-60
2021/06/22 06:40:06;;;;;;;11.43;2.95;;;16.30;81.20;;;;;;5088136;28;20036;-60
2021/06/22 06:42:32;;;;;;;11.10;3.38;;;16.40;81.00;;;;;;5090630;28;20046;-60
2021/06/22 06:44:59;;;;;;;12.90;3.08;;;16.40;80.90;;;;;;5088363;28;20044;-60
2021/06/22 06:47:25;;;;;;;7.22;2.35;;;16.40;80.60;;;;;;5079449;28;20032;-60
2021/06/22 06:49:50;;;;;;;11.68;2.85;;;16.50;80.30;;;;;;5061312;28;20033;-60
2021/06/22 06:52:19;;;;;;;10.80;3.22;;;16.50;80.20;;;;;;5067062;28;20028;-60
2021/06/22 06:54:45;;;;;;;9.32;3.17;;;16.50;80.00;;;;;;5069747;28;20024;-60
2021/06/22 06:57:10;;;;;;;9.27;3.25;;;16.50;79.80;;;;;;5070229;28;20105;-60
2021/06/22 06:59:36;;;;;;;12.13;3.90;;;16.60;80.00;;;;;;5071945;28;20042;-60
2021/06/22 07:02:02;;;;;;;9.70;2.95;;;16.50;80.30;;;;;;5066614;28;20021;-60
2021/06/22 07:04:28;;;;;;;11.45;3.10;;;16.50;79.80;;;;;;5067958;28;20028;-60
2021/06/22 07:06:54;;;;;;;7.43;2.90;;;16.60;80.00;;;;;;5070109;28;20031;-61
2021/06/22 07:09:20;;;;;;;10.38;2.35;;;16.60;80.20;;;;;;5060008;28;20063;-60
2021/06/22 07:11:45;;;;;;;7.45;2.13;;;16.60;80.20;;;;;;5070921;28;20025;-60
2021/06/22 07:14:14;;;;;;;7.40;2.20;;;16.60;80.20;;;;;;5075242;28;20446;-60
2021/06/22 07:16:41;;;;;;;8.20;2.10;;;16.70;80.10;;;;;;5069475;28;20036;-60
2021/06/22 07:19:06;;;;;;;7.32;2.55;;;16.70;79.80;;;;;;5059897;28;20033;-60
2021/06/22 07:21:32;;;;;;;6.85;2.00;;;16.70;79.60;;;;;;5073390;28;20103;-61
2021/06/22 07:23:58;;;;;;;9.75;2.97;;;16.70;79.50;;;;;;5075780;28;20036;-60
2021/06/22 07:26:23;;;;;;;8.48;2.35;;;16.70;79.20;;;;;;5071320;28;20028;-60
2021/06/22 07:28:49;;;;;;;11.48;2.97;;;16.80;79.10;;;;;;5067099;28;20487;-60
2021/06/22 07:31:15;;;;;;;10.60;2.45;;;16.80;78.90;;;;;;5074797;28;20032;-60
2021/06/22 07:33:42;;;;;;;6.85;2.60;;;16.90;78.60;;;;;;5062139;28;20024;-60
2021/06/22 07:36:08;;;;;;;7.20;2.13;;;16.90;78.70;;;;;;5073646;28;20029;-60
2021/06/22 07:38:34;;;;;;;10.27;2.50;;;16.90;78.40;;;;;;5071278;28;20040;-60
2021/06/22 07:41:00;;;;;;;11.65;2.70;;;16.90;78.30;;;;;;5073422;28;20031;-60
2021/06/22 07:43:26;;;;;;;6.38;2.03;;;17.00;78.40;;;;;;5073530;28;20107;-60
2021/06/22 07:45:52;;;;;;;10.20;2.30;;;17.00;78.30;;;;;;5074374;28;20021;-60
2021/06/22 07:48:17;;;;;;;9.95;2.20;;;17.10;78.00;;;;;;5081745;28;20052;-60
2021/06/22 07:50:43;;;;;;;6.22;2.35;;;17.10;77.80;;;;;;5095218;28;20051;-60
2021/06/22 07:53:12;;;;;;;13.07;2.63;;;17.10;77.60;;;;;;5094380;28;20043;-60
2021/06/22 07:55:38;;;;;;;11.52;2.72;;;17.20;77.40;;;;;;5093919;28;20024;-60
2021/06/22 07:58:04;;;;;;;15.50;3.00;;;17.20;77.20;;;;;;5094519;28;20040;-60
2021/06/22 08:00:46;;;;;;;6.57;2.03;;;17.20;76.90;;;;;;5093661;28;20016;-61
2021/06/22 08:03:20;;;;;;;8.98;2.25;;;17.20;76.30;;;;;;5093406;28;20035;-60
2021/06/22 08:05:48;;;;;;;8.80;2.33;;;17.20;76.70;;;;;;5081566;28;20383;-61
2021/06/22 08:08:17;;;;;;;8.45;2.40;;;17.30;76.80;;;;;;5088262;28;20483;-60
2021/06/22 08:10:44;;;;;;;8.02;2.65;;;17.30;76.70;;;;;;5088725;28;20028;-60
2021/06/22 08:13:10;;;;;;;8.30;2.42;;;17.30;76.40;;;;;;5093095;28;20102;-60
2021/06/22 08:15:37;;;;;;;11.18;2.00;;;17.30;75.70;;;;;;5092167;28;20174;-61
2021/06/22 08:18:07;;;;;;;13.77;2.20;;;17.40;75.50;;;;;;5085961;28;20055;-60
2021/06/22 08:20:33;;;;;;;9.65;2.40;;;17.40;75.20;;;;;;5085975;28;20494;-60
2021/06/22 08:22:59;;;;;;;4.32;1.77;;;17.40;75.80;;;;;;5093070;28;20032;-60
2021/06/22 08:25:27;;;;;;;7.85;2.20;;;17.40;76.10;;;;;;5094695;28;20028;-60
2021/06/22 08:27:53;;;;;;;10.70;2.20;;;17.40;76.30;;;;;;5091957;28;20028;-61
2021/06/22 08:30:21;;;;;;;5.45;2.00;;;17.40;76.50;;;;;;5091854;28;20032;-61
2021/06/22 08:32:47;;;;;;;8.73;2.30;;;17.50;76.30;;;;;;5075641;28;20036;-60
2021/06/22 08:35:13;;;;;;;3.13;1.70;;;17.60;76.00;;;;;;5085721;28;20107;-61
2021/06/22 08:37:39;;;;;;;6.15;2.33;;;17.60;75.80;;;;;;5093949;28;20038;-60
2021/06/22 08:40:07;;;;;;;8.07;2.72;;;17.60;75.90;;;;;;5093005;28;20024;-61
2021/06/22 08:42:37;;;;;;;10.57;2.40;;;17.60;75.80;;;;;;5093103;28;20036;-67
2021/06/22 08:45:08;;;;;;;11.45;2.90;;;17.70;76.00;;;;;;5088401;28;20550;-61
2021/06/22 08:47:35;;;;;;;8.45;2.70;;;17.70;76.00;;;;;;5085068;28;20064;-61
2021/06/22 08:50:01;;;;;;;6.97;2.63;;;17.80;75.80;;;;;;5067709;28;20028;-61
2021/06/22 08:52:31;;;;;;;10.27;2.60;;;17.80;75.30;;;;;;5091268;28;20028;-61
2021/06/22 08:54:57;;;;;;;11.45;2.65;;;17.80;75.60;;;;;;5087405;28;20028;-60
2021/06/22 08:57:23;;;;;;;10.45;2.67;;;17.90;75.70;;;;;;5089131;28;20391;-61
2021/06/22 08:59:52;;;;;;;9.32;2.88;;;17.90;75.40;;;;;;5092447;28;20064;-61
2021/06/22 09:02:27;;;;;;;7.47;2.38;;;17.90;75.30;;;;;;5083590;28;20387;-61
2021/06/22 09:04:55;;;;;;;6.78;2.10;;;18.00;75.60;;;;;;5084404;28;20460;-60
2021/06/22 09:07:40;;;;;;;8.48;2.67;;;18.00;75.40;;;;;;5093286;28;20070;-60
2021/06/22 09:10:07;;;;;;;8.07;3.22;;;18.00;74.80;;;;;;5078501;28;20035;-60
2021/06/22 09:12:32;;;;;;;10.95;3.20;;;18.00;74.40;;;;;;5090014;28;20016;-61
2021/06/22 09:14:58;;;;;;;9.23;3.00;;;18.00;74.80;;;;;;5093018;28;20487;-60
2021/06/22 09:17:34;;;;;;;9.35;3.22;;;18.10;75.20;;;;;;5090256;28;20089;-61
2021/06/22 09:20:00;;;;;;;10.57;3.47;;;18.10;75.60;;;;;;5069124;28;20058;-61
2021/06/22 09:22:27;;;;;;;11.52;3.10;;;18.10;75.40;;;;;;5087126;28;20036;-61
2021/06/22 09:25:13;;;;;;;10.05;2.92;;;18.10;75.20;;;;;;5090373;28;20028;-60
2021/06/22 09:27:50;;;;;;;9.18;2.50;;;18.20;74.20;;;;;;5093295;28;20043;-61
2021/06/22 09:30:36;;;;;;;8.35;3.17;;;18.20;74.30;;;;;;5090140;28;20052;-61
2021/06/22 09:33:40;;;;;;;12.45;2.92;;;18.30;74.10;;;;;;5091267;28;20107;-61
2021/06/22 09:36:08;;;;;;;10.32;2.45;;;18.30;73.40;;;;;;5073376;28;20051;-61
2021/06/22 09:38:36;;;;;;;13.35;3.17;;;18.40;73.60;;;;;;5084316;28;20063;-61
2021/06/22 09:41:09;;;;;;;13.23;3.25;;;18.40;74.00;;;;;;5079539;28;20028;-61
2021/06/22 09:43:43;;;;;;;8.20;3.03;;;18.40;73.90;;;;;;5091088;28;20081;-61
2021/06/22 09:46:10;;;;;;;12.18;3.15;;;18.40;74.60;;;;;;5091754;28;20024;-61
2021/06/22 09:48:52;;;;;;;16.02;2.33;;;18.40;74.70;;;;;;5092220;28;20426;-61
2021/06/22 09:51:18;;;;;;;13.40;2.70;;;18.50;74.90;;;;;;5085586;28;20425;-60
2021/06/22 09:53:44;;;;;;;12.27;2.63;;;18.50;74.80;;;;;;5091380;28;20054;-61
2021/06/22 09:56:22;;;;;;;10.70;2.63;;;18.50;74.70;;;;;;5091450;28;20044;-61
2021/06/22 09:58:47;;;;;;;10.32;2.10;;;18.50;74.20;;;;;;5073904;28;20059;-61
2021/06/22 10:01:26;;;;;;;9.25;2.63;;;18.50;74.30;;;;;;5090376;28;20044;-61
2021/06/22 10:03:55;;;;;;;8.77;2.40;;;18.50;74.00;;;;;;5092353;28;20450;-61
2021/06/22 10:06:21;;;;;;;7.82;2.65;;;18.60;74.00;;;;;;5090634;28;20099;-61
2021/06/22 10:08:55;;;;;;;5.53;3.15;;;18.50;73.90;;;;;;5090723;28;20069;-61
2021/06/22 10:11:37;;;;;;;6.72;2.80;;;18.60;73.70;;;;;;5091600;28;20063;-60
2021/06/22 10:14:05;;;;;;;9.02;2.55;;;18.60;73.90;;;;;;5082720;28;20471;-61
2021/06/22 10:16:33;;;;;;;10.40;2.90;;;18.60;73.90;;;;;;5083573;28;20161;-61
2021/06/22 10:19:04;;;;;;;8.35;2.80;;;18.70;73.40;;;;;;5076371;28;20093;-61
2021/06/22 10:21:32;;;;;;;5.57;2.53;;;18.60;73.50;;;;;;5089536;28;20060;-61
2021/06/22 10:23:58;;;;;;;11.73;2.80;;;18.70;73.20;;;;;;5090815;28;20464;-61
2021/06/22 10:26:27;;;;;;;9.88;2.63;;;18.70;72.80;;;;;;5089171;28;20052;-61
2021/06/22 10:28:54;;;;;;;11.80;2.60;;;18.70;73.60;;;;;;5084568;28;20048;-61
2021/06/22 10:31:20;;;;;;;9.88;2.90;;;18.70;73.50;;;;;;5092381;28;20035;-61
2021/06/22 10:33:46;;;;;;;8.68;3.60;;;18.80;73.60;;;;;;5090139;28;20024;-61
2021/06/22 10:36:22;;;;;;;12.85;3.38;;;18.80;73.30;;;;;;5091712;28;20039;-61
2021/06/22 10:38:50;;;;;;;10.02;2.67;;;18.90;72.40;;;;;;5086952;28;20028;-61
2021/06/22 10:41:18;;;;;;;13.82;3.55;;;18.90;72.60;;;;;;5090629;28;20487;-60
2021/06/22 10:43:47;;;;;;;6.00;2.60;;;18.90;72.50;;;;;;5088706;28;20024;-61
2021/06/22 10:46:18;;;;;;;9.40;3.25;;;18.90;72.40;;;;;;5093436;28;20103;-61
2021/06/22 10:48:45;;;;;;;6.63;3.08;;;19.00;72.40;;;;;;5095412;28;20063;-61
2021/06/22 10:51:43;;;;;;;12.40;3.80;;;19.00;71.70;;;;;;5077150;28;20032;-60
2021/06/22 10:54:13;;;;;;;11.95;3.63;;;19.00;71.00;;;;;;5089276;28;20024;-66
2021/06/22 10:56:42;;;;;;;11.55;3.03;;;19.00;71.10;;;;;;5095285;28;20830;-61
2021/06/22 10:59:11;;;;;;;8.48;3.33;;;19.00;72.20;;;;;;5095420;28;20044;-61
2021/06/22 11:01:52;;;;;;;9.65;3.65;;;19.10;72.00;;;;;;5096007;28;20093;-61
2021/06/22 11:04:19;;;;;;;11.32;4.15;;;19.10;72.10;;;;;;5091945;28;20048;-60
2021/06/22 11:07:05;;;;;;;9.18;3.40;;;19.10;72.50;;;;;;5093596;28;20024;-60
2021/06/22 11:09:31;;;;;;;10.02;3.40;;;19.20;71.40;;;;;;5075968;28;20803;-61
2021/06/22 11:12:18;;;;;;;7.80;3.22;;;19.20;71.40;;;;;;5092922;28;20027;-61
2021/06/22 11:14:59;;;;;;;10.60;3.22;;;19.30;71.20;;;;;;5092905;28;20028;-60
2021/06/22 11:17:43;;;;;;;6.35;3.10;;;19.30;71.20;;;;;;5092525;28;20123;-60
2021/06/22 11:20:09;;;;;;;;;;;19.30;71.20;;;;;;5094316;28;20035;-60
2021/06/22 11:23:04;;;;;;;7.15;2.80;;;19.40;72.90;;;;;;5094290;28;20281;-60
2021/06/22 11:25:53;;;;;;;8.10;3.45;;;19.40;72.70;;;;;;5093150;28;20036;-61
2021/06/22 11:28:23;;;;;;;9.25;3.67;;;19.40;72.10;;;;;;5094042;28;20023;-60
2021/06/22 11:30:55;;;;;;;9.35;3.53;;;19.50;72.10;;;;;;5093583;28;20024;-60
2021/06/22 11:33:43;;;;;;;8.90;3.53;;;19.50;70.80;;;;;;5090604;28;20043;-61
2021/06/22 11:36:15;;;;;;;10.60;3.00;;;19.50;70.70;;;;;;5090756;28;20379;-60
2021/06/22 11:38:41;;;;;;;10.65;3.03;;;19.50;70.80;;;;;;5089935;28;20490;-61
2021/06/22 11:41:12;;;;;;;5.03;2.88;;;19.60;70.60;;;;;;5075052;28;20020;-60
2021/06/22 11:43:58;;;;;;;5.90;3.33;;;19.60;70.90;;;;;;5093145;28;20032;-61
2021/06/22 11:46:31;;;;;;;6.60;3.92;;;19.60;70.80;;;;;;5089765;28;20016;-61
2021/06/22 11:48:58;;;;;;;8.65;2.65;;;19.70;70.70;;;;;;5093977;28;20064;-61
2021/06/22 11:51:51;;;;;;;7.25;3.17;;;19.70;71.20;;;;;;5089014;28;20060;-61
2021/06/22 11:54:46;;;;;;;6.47;2.97;;;19.70;71.00;;;;;;5087682;28;20375;-60
2021/06/22 11:57:16;;;;;;;8.20;3.58;;;19.70;71.40;;;;;;5071096;28;20039;-62
2021/06/22 11:59:42;;;;;;;8.90;2.80;;;19.80;70.60;;;;;;5092297;28;20471;-61
2021/06/22 12:02:08;;;;;;;6.30;2.75;;;19.80;70.30;;;;;;5095316;28;20115;-62
2021/06/22 12:04:34;;;;;;;9.40;3.25;;;19.80;70.50;;;;;;5089435;28;20379;-61
2021/06/22 12:07:00;;;;;;;7.40;3.20;;;19.80;69.90;;;;;;5090234;28;20031;-61
2021/06/22 12:09:26;;;;;;;6.38;2.65;;;19.90;69.20;;;;;;5091234;28;20498;-61
2021/06/22 12:11:54;;;;;;;7.00;3.13;;;19.90;69.80;;;;;;5092660;28;20031;-61
2021/06/22 12:14:20;;;;;;;8.68;3.35;;;19.80;69.70;;;;;;5091499;28;20024;-60
2021/06/22 12:16:48;;;;;;;10.48;2.88;;;19.90;69.40;;;;;;5086054;28;20044;-60
2021/06/22 12:19:19;;;;;;;5.60;2.45;;;19.90;68.90;;;;;;5094046;28;20501;-60
2021/06/22 12:21:49;;;;;;;5.03;2.70;;;20.00;69.50;;;;;;5090918;28;20028;-61
2021/06/22 12:24:17;;;;;;;6.20;2.97;;;20.00;68.80;;;;;;5090706;28;20040;-60
2021/06/22 12:26:46;;;;;;;8.52;2.83;;;20.00;68.80;;;;;;5091381;28;20031;-61
2021/06/22 12:29:18;;;;;;;9.40;2.90;;;20.00;67.60;;;;;;5090242;28;20027;-61
2021/06/22 12:31:55;;;;;;;4.13;2.65;;;20.10;68.10;;;;;;5091656;28;20024;-61
2021/06/22 12:34:22;;;;;;;6.55;2.88;;;20.10;67.20;;;;;;5081049;28;20032;-62
2021/06/22 12:36:48;;;;;;;8.15;3.40;;;20.10;66.80;;;;;;5091975;28;20380;-61
2021/06/22 12:39:17;;;;;;;6.38;2.97;;;20.20;67.10;;;;;;5092969;28;20038;-61
2021/06/22 12:41:44;;;;;;;8.23;3.90;;;20.20;67.60;;;;;;5087269;28;20798;-61
2021/06/22 12:44:10;;;;;;;6.35;2.90;;;20.30;66.40;;;;;;5092395;28;20028;-61
2021/06/22 12:46:38;;;;;;;8.30;3.00;;;20.20;67.40;;;;;;5093773;28;20024;-61
2021/06/22 12:49:10;;;;;;;13.85;2.90;;;20.30;67.00;;;;;;5092632;28;20097;-61
2021/06/22 12:51:43;;;;;;;9.02;2.92;;;20.30;67.20;;;;;;5091499;28;20032;-61